Flight Track Log - Related Links

Times and Time Zones

All times are in EDT time to prevent confusion due to time zone crossing. See the EJA941 flight status page for this flight to view local times or setup timezone preferences in your user account.

Time Position Orientation Groundspeed Altitude Reporting Facility
EDT Latitude Longitude Course Direction KTS MPH feet Rate Location/Type
Thu 07:14:32 AM 42.9333 -87.9000 236° Southwest 174 200 1,800  Level KMKE
Thu 07:15:08 AM 42.9167 -87.9333 236° Southwest 221 254 3,900 3,585 Climbing KMKE
Thu 07:15:54 AM 42.9433 -87.9747 311° West 258 297 6,700 4,598 Climbing Chicago Center
Thu 07:16:55 AM 43.0128 -88.0519 321° Northwest 266 306 12,100 3,836 Climbing Chicago Center
Thu 07:17:56 AM 43.0869 -88.1381 320° Northwest 350 403 14,500 2,164 Climbing Chicago Center
Thu 07:18:57 AM 43.1750 -88.2381 320° Northwest 407 468 16,500 1,967 Climbing Chicago Center
Thu 07:19:58 AM 43.2467 -88.3653 308° West 421 484 18,500 1,967 Climbing Chicago Center
Thu 07:20:59 AM 43.3178 -88.4981 306° West 424 488 20,500 2,016 Climbing Chicago Center
Thu 07:22:00 AM 43.3889 -88.6328 306° West 423 487 22,600 2,016 Climbing Chicago Center
Thu 07:23:01 AM 43.4597 -88.7669 306° West 427 491 24,600 1,659 Climbing Chicago Center
Thu 07:24:03 AM 43.5306 -88.9011 306° West 430 495 26,000 683 Climbing Chicago Center
Thu 07:25:04 AM 43.6078 -89.0494 306° West 468 539 26,000  Level Chicago Center
Thu 07:26:05 AM 43.6897 -89.2056 306° West 497 572 26,000  Level Chicago Center
Thu 07:27:06 AM 43.7703 -89.3622 305° West 500 575 26,000  Level Chicago Center
Thu 07:28:07 AM 43.8514 -89.5186 306° West 500 575 26,000  Level Chicago Center
Thu 07:29:08 AM 43.9331 -89.6808 305° West 512 589 26,000  Level Chicago Center
Thu 07:30:10 AM 44.0153 -89.8403 306° West 511 588 26,000  Level Chicago Center
Thu 07:31:11 AM 44.0967 -89.9986 306° West 505 581 26,000  Level Chicago Center
Thu 07:32:12 AM 44.1989 -90.1806 308° West 501 577 26,000  Level Chicago Center
Thu 07:33:14 AM 44.2611 -90.3208 302° West 500 575 26,000  Level Chicago Center
Thu 07:34:15 AM 44.3292 -90.4858 300° West 497 572 26,000  Level Chicago Center
Thu 07:35:16 AM 44.4106 -90.6817 300° West 493 567 26,000  Level Chicago Center
Thu 07:36:17 AM 44.4764 -90.8464 299° West 492 566 26,000  Level Chicago Center
Thu 07:37:19 AM 44.5436 -91.0125 300° West 493 567 26,000  Level Chicago Center
Thu 07:38:20 AM 44.6114 -91.1786 300° West 495 570 26,000 -341 Level Chicago Center
Thu 07:39:22 AM 44.6794 -91.3472 300° West 498 573 25,300 -1,739 Descending Chicago Center
Thu 07:40:38 AM 44.7644 -91.5606 299° West 497 572 22,000 -2,453 Descending Minneapolis Center
Thu 07:41:39 AM 44.8247 -91.7147 299° West 469 540 19,700 -2,311 Descending Minneapolis Center
Thu 07:42:40 AM 44.8828 -91.8628 299° West 439 505 17,300 -2,459 Descending Minneapolis Center
Thu 07:43:41 AM 44.9525 -92.0386 299° West 428 493 14,700 -2,410 Descending Minneapolis Center
Thu 07:44:42 AM 45.0064 -92.1797 298° West 413 475 12,400 -1,820 Descending Minneapolis Center
Thu 07:45:43 AM 45.0403 -92.3197 289° West 382 440 11,000 -689 Descending Minneapolis Center
Thu 07:46:44 AM 45.0069 -92.4619 252° West 385 443 11,000 -197 Level Minneapolis Center
Thu 07:47:45 AM 44.9622 -92.6033 246° West 395 455 10,600 -984 Descending Minneapolis Center
Thu 07:48:46 AM 44.9297 -92.7056 246° West 286 329 9,000 -1,951 Descending Minneapolis Center
Thu 07:49:48 AM 44.8989 -92.8039 246° West 276 318 6,600 -2,341 Descending Minneapolis Center
Thu 07:50:49 AM 44.8706 -92.8931 246° West 254 292 4,200 -1,623 Descending Minneapolis Center
Thu 07:51:50 AM 44.8433 -92.9797 246° West 245 282 3,300 -590 Descending Minneapolis Center
Thu 07:52:51 AM 44.8206 -93.0583 248° West 214 246 3,000 -590 Descending Minneapolis Center
Thu 07:53:52 AM 44.8403 -93.1253 293° West 153 176 2,100 -732 Descending Minneapolis Center
Thu 07:54:54 AM 44.8575 -93.1647 302° West 121 139 1,500 -581 Descending Minneapolis Center

Login

Don't have an account? Register now (free) for customized features, flight alerts, and more!